KWDG/WDG METAR and TAF weather

Enter ICAO airport designator
Station Type Date Time Source
KWDG METAR 2020/10/20 17:47 UTC NOAA

KWDG 201747Z 00000KT 10SM OVC010 12/09 A2998


Station Type Date Time Source
KWDG Decoded METAR 2020/10/20 17:47 UTC NOAA

Enid, Enid Woodring Regional Airport, OK, United States (KWDG) 36-22-45N 097-47-28W
Oct 20, 2020 - 01:47 PM EDT / 2020.10.20 1747 UTC
Wind: Calm:0
Visibility: 10 mile(s):0
Sky conditions: overcast
Temperature: 53 F (12 C)
Dew Point: 48 F (9 C)
Relative Humidity: 81%
Pressure (altimeter): 29.98 in. Hg (1015 hPa)
ob: KWDG 201747Z 00000KT 10SM OVC010 12/09 A2998
cycle: 18

Station Type Date Time Source
KWDG TAF UTC NOAA

Error!

Example: see airport list